Time;durP1;ratioP1;P1;durP2;ratioP2;P2;SDS_P1;SDS_P2;PMS_P1;PMS_P2;Temp;Humidity;BMP_temperature;BMP_pressure;BME280_temperature;BME280_humidity;BME280_pressure;Samples;Min_cycle;Max_cycle;Signal;HPM_P1;HPM_P2
2021/04/12 00:01:27;;;;;;;16.98;15.98;;;5.60;91.40;;;;;;5134157;27;20574;-76
2021/04/12 00:04:00;;;;;;;16.00;15.30;;;5.60;91.00;;;;;;5134388;27;20224;-76
2021/04/12 00:06:33;;;;;;;16.23;15.43;;;5.60;89.30;;;;;;5133614;27;20194;-76
2021/04/12 00:09:04;;;;;;;16.65;15.85;;;5.40;89.50;;;;;;5134128;27;20250;-76
2021/04/12 00:11:38;;;;;;;17.35;16.55;;;5.30;89.20;;;;;;5133460;27;20226;-76
2021/04/12 00:14:10;;;;;;;17.20;16.20;;;5.10;90.40;;;;;;5134012;27;20208;-76
2021/04/12 00:16:41;;;;;;;17.27;16.17;;;5.10;91.10;;;;;;5133187;27;20201;-76
2021/04/12 00:19:14;;;;;;;16.45;15.65;;;5.00;90.90;;;;;;5133882;27;20617;-75
2021/04/12 00:21:49;;;;;;;17.13;16.25;;;5.00;92.20;;;;;;5133707;27;20570;-76
2021/04/12 00:24:21;;;;;;;17.58;16.67;;;4.90;92.30;;;;;;5133881;27;20253;-76
2021/04/12 00:26:55;;;;;;;16.50;15.60;;;4.90;90.70;;;;;;5133307;27;20197;-76
2021/04/12 00:29:26;;;;;;;16.77;15.88;;;4.70;91.00;;;;;;5132615;27;20200;-76
2021/04/12 00:31:57;;;;;;;17.60;16.60;;;4.70;91.50;;;;;;5133843;27;20200;-76
2021/04/12 00:34:40;;;;;;;16.60;15.82;;;4.70;91.30;;;;;;5133620;27;20242;-77
2021/04/12 00:37:12;;;;;;;17.60;16.60;;;4.70;91.00;;;;;;5133012;27;20193;-76
2021/04/12 00:39:42;;;;;;;17.08;16.08;;;4.80;91.50;;;;;;5133425;27;20575;-76
2021/04/12 00:42:38;;;;;;;16.98;16.10;;;4.80;91.10;;;;;;5133568;27;20196;-76
2021/04/12 00:45:22;;;;;;;17.27;16.38;;;4.70;91.20;;;;;;5120274;27;20225;-76
2021/04/12 00:47:56;;;;;;;17.45;16.55;;;4.70;91.50;;;;;;5133209;27;20280;-76
2021/04/12 00:50:43;;;;;;;16.88;16.05;;;4.60;91.70;;;;;;5133475;27;20266;-76
2021/04/12 00:53:56;;;;;;;16.80;15.90;;;4.60;92.30;;;;;;5133566;27;20284;-76
2021/04/12 00:56:29;;;;;;;17.77;16.88;;;4.60;92.10;;;;;;5132860;27;20197;-76
2021/04/12 00:59:01;;;;;;;17.58;16.58;;;4.50;91.50;;;;;;5133468;27;20202;-76
2021/04/12 01:01:45;;;;;;;18.13;17.23;;;4.50;91.60;;;;;;5133163;27;20220;-77
2021/04/12 01:04:36;;;;;;;18.77;17.67;;;4.40;91.90;;;;;;5133252;27;20229;-76
2021/04/12 01:07:25;;;;;;;17.75;16.85;;;4.30;92.00;;;;;;5132729;27;20199;-76
2021/04/12 01:10:31;;;;;;;18.05;17.05;;;4.30;92.50;;;;;;5133197;27;20226;-76
2021/04/12 01:13:24;;;;;;;17.45;16.55;;;4.30;91.90;;;;;;5132589;27;20249;-76
2021/04/12 01:16:34;;;;;;;17.45;16.45;;;4.30;91.80;;;;;;5132688;28;20200;-76
2021/04/12 01:19:10;;;;;;;17.63;16.73;;;4.20;92.30;;;;;;5112311;28;20229;-76
2021/04/12 01:22:01;;;;;;;17.50;16.50;;;4.20;92.20;;;;;;5133198;27;20197;-76
2021/04/12 01:25:25;;;;;;;17.58;16.58;;;4.20;92.00;;;;;;5129503;27;20249;-76
2021/04/12 01:28:54;;;;;;;18.00;17.00;;;4.20;92.10;;;;;;5084269;27;20229;-81
2021/04/12 01:31:58;;;;;;;18.45;17.45;;;4.30;92.10;;;;;;5049846;28;20212;-76
2021/04/12 01:34:59;;;;;;;17.50;16.60;;;4.30;92.00;;;;;;5049912;28;20200;-76
2021/04/12 01:37:43;;;;;;;18.25;17.05;;;4.40;91.90;;;;;;5132774;27;20200;-76
2021/04/12 01:40:13;;;;;;;20.23;18.75;;;4.40;91.20;;;;;;5132821;27;20238;-76
2021/04/12 01:42:47;;;;;;;18.55;17.50;;;4.40;91.60;;;;;;5137167;27;20190;-76
2021/04/12 01:45:37;;;;;;;18.75;17.65;;;4.30;91.70;;;;;;5136927;27;20217;-77
2021/04/12 01:48:16;;;;;;;18.60;17.52;;;4.50;91.70;;;;;;5136886;27;20235;-76
2021/04/12 01:51:18;;;;;;;18.27;17.17;;;4.30;91.30;;;;;;5136760;27;20228;-77
2021/04/12 01:54:12;;;;;;;18.40;17.30;;;4.20;92.60;;;;;;5136914;27;20190;-76
2021/04/12 01:56:46;;;;;;;19.33;18.08;;;4.30;93.00;;;;;;5122421;27;20200;-76
2021/04/12 01:59:26;;;;;;;18.25;17.25;;;4.10;92.20;;;;;;5136817;27;20277;-76
2021/04/12 02:02:21;;;;;;;18.83;17.63;;;4.00;92.60;;;;;;5136759;27;20328;-76
2021/04/12 02:05:38;;;;;;;18.25;17.15;;;4.00;93.50;;;;;;5136529;27;20808;-77
2021/04/12 02:08:28;;;;;;;18.92;17.83;;;4.00;92.30;;;;;;5086803;27;20292;-76
2021/04/12 02:11:13;;;;;;;18.17;17.17;;;4.10;92.50;;;;;;5136158;27;20220;-79
2021/04/12 02:14:01;;;;;;;17.38;16.48;;;4.10;92.50;;;;;;5136344;27;20236;-76
2021/04/12 02:16:36;;;;;;;18.30;17.30;;;4.20;92.80;;;;;;5135395;27;20247;-76
2021/04/12 02:19:19;;;;;;;18.55;17.50;;;4.20;91.80;;;;;;5136281;27;20193;-78
2021/04/12 02:22:42;;;;;;;19.13;18.05;;;4.10;91.70;;;;;;5136487;27;20208;-76
2021/04/12 02:25:17;;;;;;;18.60;17.50;;;4.10;92.40;;;;;;5136083;27;20231;-76
2021/04/12 02:27:51;;;;;;;18.63;17.52;;;4.10;91.90;;;;;;5135711;27;20231;-76
2021/04/12 02:30:24;;;;;;;19.48;18.25;;;4.10;91.80;;;;;;5136006;27;20298;-76
2021/04/12 02:33:08;;;;;;;18.48;17.38;;;4.10;92.00;;;;;;5136039;27;20603;-76
2021/04/12 02:35:39;;;;;;;18.58;17.48;;;4.10;91.40;;;;;;5135615;27;20281;-76
2021/04/12 02:38:22;;;;;;;19.15;18.05;;;3.90;91.50;;;;;;5136125;27;20208;-76
2021/04/12 02:41:24;;;;;;;18.67;17.67;;;3.80;92.40;;;;;;5135895;27;20227;-76
2021/04/12 02:44:19;;;;;;;19.08;17.98;;;3.80;92.00;;;;;;5135908;27;20310;-76
2021/04/12 02:47:04;;;;;;;20.83;19.48;;;3.90;92.80;;;;;;5135355;27;20231;-76
2021/04/12 02:49:36;;;;;;;19.67;18.33;;;4.00;92.10;;;;;;5135812;27;20221;-76
2021/04/12 02:52:18;;;;;;;20.65;19.35;;;4.10;91.60;;;;;;5134653;27;20320;-76
2021/04/12 02:55:14;;;;;;;19.55;18.35;;;4.20;91.40;;;;;;5135526;27;20662;-76
2021/04/12 02:57:54;;;;;;;21.90;20.50;;;4.20;90.80;;;;;;5135147;27;20250;-76
2021/04/12 03:00:33;;;;;;;23.95;22.25;;;4.10;90.80;;;;;;5135323;27;20302;-76
2021/04/12 03:03:25;;;;;;;20.55;19.25;;;3.80;91.60;;;;;;5135632;27;20282;-76
2021/04/12 03:06:19;;;;;;;19.45;18.25;;;3.90;92.10;;;;;;5134998;27;20227;-76
2021/04/12 03:09:04;;;;;;;21.60;20.10;;;3.80;92.30;;;;;;5135366;27;20284;-77
2021/04/12 03:11:55;;;;;;;20.92;19.70;;;3.90;92.30;;;;;;5135021;27;20307;-76
2021/04/12 03:14:56;;;;;;;19.58;18.38;;;3.80;91.20;;;;;;5135205;27;20208;-76
2021/04/12 03:18:16;;;;;;;22.60;21.30;;;3.70;91.60;;;;;;5134435;27;20192;-76
2021/04/12 03:21:03;;;;;;;21.73;18.80;;;3.50;92.70;;;;;;5046792;28;20642;-76
2021/04/12 03:23:45;;;;;;;19.92;18.73;;;3.60;92.80;;;;;;5051840;28;20287;-76
2021/04/12 03:26:29;;;;;;;21.02;19.83;;;3.80;92.00;;;;;;5120546;27;20191;-76
2021/04/12 03:29:07;;;;;;;22.70;20.92;;;3.70;91.80;;;;;;5134919;27;20252;-76
2021/04/12 03:32:07;;;;;;;21.15;19.85;;;3.70;92.10;;;;;;5134888;27;20220;-77
2021/04/12 03:34:37;;;;;;;21.52;20.25;;;3.80;92.30;;;;;;5100962;27;20568;-76
2021/04/12 03:37:42;;;;;;;20.83;19.52;;;3.80;91.60;;;;;;5134625;27;20198;-76
2021/04/12 03:40:19;;;;;;;19.10;18.00;;;3.90;91.70;;;;;;5134655;27;20350;-80
2021/04/12 03:43:19;;;;;;;21.25;19.90;;;3.90;92.00;;;;;;5134711;27;20280;-76
2021/04/12 03:46:18;;;;;;;24.40;22.92;;;4.00;91.30;;;;;;5134014;27;20311;-76
2021/04/12 03:49:13;;;;;;;24.33;22.52;;;4.00;91.10;;;;;;5134578;27;20292;-76
2021/04/12 03:51:59;;;;;;;20.55;19.15;;;4.10;91.60;;;;;;5134536;27;20196;-76
2021/04/12 03:54:39;;;;;;;20.08;18.95;;;4.10;90.90;;;;;;5134416;27;20198;-76
2021/04/12 03:57:44;;;;;;;21.73;19.67;;;4.20;90.10;;;;;;5133831;27;20287;-76
2021/04/12 04:00:30;;;;;;;22.30;21.00;;;4.20;90.00;;;;;;5134355;27;20308;-76
2021/04/12 04:03:23;;;;;;;21.95;19.95;;;4.20;89.90;;;;;;5134142;27;20201;-76
2021/04/12 04:06:20;;;;;;;23.38;21.88;;;4.20;90.10;;;;;;5133673;27;20549;-76
2021/04/12 04:08:59;;;;;;;21.48;20.15;;;4.00;89.60;;;;;;5134295;27;20558;-76
2021/04/12 04:11:49;;;;;;;23.15;21.63;;;3.90;90.30;;;;;;5133716;27;20351;-76
2021/04/12 04:14:51;;;;;;;21.23;19.92;;;3.80;91.20;;;;;;5134159;27;20293;-76
2021/04/12 04:17:47;;;;;;;22.35;20.95;;;3.90;91.00;;;;;;5133367;27;20290;-76
2021/04/12 04:20:41;;;;;;;22.67;21.20;;;4.00;91.40;;;;;;5133900;27;20701;-76
2021/04/12 04:23:43;;;;;;;23.45;21.85;;;3.90;90.60;;;;;;5133815;27;20526;-76
2021/04/12 04:26:20;;;;;;;23.40;21.85;;;3.90;91.00;;;;;;5064358;27;20196;-76
2021/04/12 04:29:31;;;;;;;23.90;22.23;;;3.90;91.70;;;;;;5133919;27;20287;-76
2021/04/12 04:32:34;;;;;;;24.77;23.08;;;4.00;91.70;;;;;;5050481;28;20292;-76
2021/04/12 04:35:24;;;;;;;24.10;22.50;;;4.00;90.80;;;;;;5123574;27;20290;-76
2021/04/12 04:38:36;;;;;;;21.65;20.25;;;3.90;91.40;;;;;;5088350;27;20282;-77
2021/04/12 04:41:13;;;;;;;22.00;20.50;;;4.00;91.80;;;;;;5050355;28;20258;-76
2021/04/12 04:43:59;;;;;;;22.90;21.40;;;3.90;91.40;;;;;;5128557;27;20206;-76
2021/04/12 04:46:56;;;;;;;23.02;21.45;;;3.80;91.20;;;;;;5132999;27;20277;-76
2021/04/12 04:49:45;;;;;;;22.50;21.10;;;3.80;91.50;;;;;;5133383;27;20562;-77
2021/04/12 04:52:30;;;;;;;21.10;19.80;;;3.80;90.50;;;;;;5133531;27;20208;-76
2021/04/12 04:55:31;;;;;;;19.92;18.63;;;3.60;91.50;;;;;;5133201;27;20198;-76
2021/04/12 04:58:08;;;;;;;20.30;19.10;;;3.50;92.10;;;;;;5126646;27;20195;-75
2021/04/12 05:01:07;;;;;;;23.90;22.30;;;3.60;92.00;;;;;;5133316;27;20228;-76
2021/04/12 05:04:21;;;;;;;21.00;19.80;;;3.50;92.10;;;;;;5133206;27;20622;-76
2021/04/12 05:07:32;;;;;;;21.92;20.63;;;3.50;91.90;;;;;;5132878;27;20556;-76
2021/04/12 05:10:24;;;;;;;18.85;17.75;;;3.50;92.10;;;;;;5133146;27;20215;-75
2021/04/12 05:13:05;;;;;;;22.58;21.27;;;3.50;92.60;;;;;;5132459;27;20645;-76
2021/04/12 05:16:23;;;;;;;23.02;21.52;;;3.40;92.10;;;;;;5134551;27;20194;-76
2021/04/12 05:19:14;;;;;;;20.90;19.60;;;3.40;92.00;;;;;;5140024;27;20754;-75
2021/04/12 05:22:06;;;;;;;24.30;22.70;;;3.50;92.00;;;;;;5139912;27;20200;-76
2021/04/12 05:24:42;;;;;;;21.55;20.15;;;3.50;91.60;;;;;;5139945;27;20214;-76
2021/04/12 05:27:37;;;;;;;21.45;20.13;;;3.50;92.30;;;;;;5139393;27;20664;-76
2021/04/12 05:30:33;;;;;;;21.52;20.02;;;3.50;92.00;;;;;;5139667;27;20664;-75
2021/04/12 05:33:11;;;;;;;22.58;20.80;;;3.50;92.10;;;;;;5139890;27;20284;-76
2021/04/12 05:35:52;;;;;;;21.48;20.08;;;3.50;91.10;;;;;;5139229;27;20664;-75
2021/04/12 05:38:35;;;;;;;24.27;22.63;;;3.50;91.40;;;;;;5139914;27;20223;-75
2021/04/12 05:41:22;;;;;;;22.77;21.27;;;3.30;92.00;;;;;;5140026;27;20212;-76
2021/04/12 05:43:58;;;;;;;19.85;18.55;;;3.40;92.20;;;;;;5139558;27;20684;-76
2021/04/12 05:46:51;;;;;;;23.00;21.50;;;3.30;91.70;;;;;;5139332;27;20313;-76
2021/04/12 05:49:34;;;;;;;22.45;20.98;;;3.30;92.20;;;;;;5139602;27;20202;-76
2021/04/12 05:52:18;;;;;;;22.15;20.45;;;3.30;92.80;;;;;;5139493;27;20265;-76
2021/04/12 05:55:10;;;;;;;22.42;20.92;;;3.40;93.00;;;;;;5139659;27;20195;-76
2021/04/12 05:58:02;;;;;;;35.72;23.70;;;3.60;92.90;;;;;;5129483;27;20320;-76
2021/04/12 06:00:39;;;;;;;22.73;21.13;;;3.60;92.00;;;;;;5139603;27;20220;-76
2021/04/12 06:03:33;;;;;;;23.00;21.40;;;3.50;92.50;;;;;;5139535;27;20345;-76
2021/04/12 06:06:29;;;;;;;22.70;21.10;;;3.50;93.00;;;;;;5138852;27;20249;-75
2021/04/12 06:09:27;;;;;;;23.58;21.98;;;3.40;92.90;;;;;;5103350;27;20286;-76
2021/04/12 06:12:26;;;;;;;22.65;21.05;;;3.50;92.90;;;;;;5138919;27;20328;-76
2021/04/12 06:15:26;;;;;;;24.48;22.83;;;3.60;92.30;;;;;;5104926;27;20287;-76
2021/04/12 06:18:16;;;;;;;23.52;21.90;;;3.50;92.10;;;;;;5138979;27;20295;-76
2021/04/12 06:21:15;;;;;;;26.33;23.83;;;3.70;93.00;;;;;;5139426;27;20220;-76
2021/04/12 06:23:55;;;;;;;24.60;22.90;;;3.90;91.60;;;;;;5139394;27;20195;-75
2021/04/12 06:27:05;;;;;;;23.55;21.60;;;3.80;91.60;;;;;;5138352;27;20208;-76
2021/04/12 06:29:49;;;;;;;23.92;22.25;;;4.00;91.40;;;;;;5115415;27;20222;-76
2021/04/12 06:32:44;;;;;;;27.08;25.17;;;4.20;91.20;;;;;;5136149;27;20289;-77
2021/04/12 06:35:46;;;;;;;25.17;23.38;;;4.50;90.60;;;;;;5136009;27;20194;-77
2021/04/12 06:38:49;;;;;;;26.15;23.83;;;4.60;88.50;;;;;;5135874;27;20268;-77
2021/04/12 06:41:45;;;;;;;24.48;22.70;;;4.60;88.50;;;;;;5135725;27;20304;-77
2021/04/12 06:44:38;;;;;;;28.17;26.25;;;4.70;88.30;;;;;;5101241;27;20826;-77
2021/04/12 06:47:27;;;;;;;27.52;25.65;;;4.90;87.80;;;;;;5135136;27;20200;-77
2021/04/12 06:50:27;;;;;;;26.77;25.08;;;5.00;86.90;;;;;;5135721;27;20225;-76
2021/04/12 06:53:43;;;;;;;25.23;22.90;;;5.00;86.00;;;;;;5135875;27;20200;-77
2021/04/12 06:56:41;;;;;;;25.38;23.67;;;4.60;86.90;;;;;;5134971;27;20558;-77
2021/04/12 06:59:42;;;;;;;26.27;24.48;;;4.40;87.40;;;;;;5135577;27;20193;-76
2021/04/12 07:02:43;;;;;;;24.85;23.05;;;4.50;87.90;;;;;;5135580;27;20203;-77
2021/04/12 07:05:47;;;;;;;25.67;23.77;;;4.60;87.80;;;;;;5135266;27;20235;-77
2021/04/12 07:08:53;;;;;;;23.13;21.60;;;4.60;87.10;;;;;;5051978;28;21114;-76
2021/04/12 07:11:56;;;;;;;26.30;24.38;;;4.70;87.90;;;;;;5056982;27;20221;-77
2021/04/12 07:15:12;;;;;;;25.27;23.58;;;4.70;87.00;;;;;;5135049;27;20246;-77
2021/04/12 07:18:21;;;;;;;24.25;22.65;;;4.70;87.00;;;;;;5051292;28;20204;-77
2021/04/12 07:21:17;;;;;;;25.50;23.42;;;4.70;86.90;;;;;;5129912;27;20213;-76
2021/04/12 07:24:18;;;;;;;27.30;25.50;;;4.60;87.00;;;;;;5106183;27;20729;-76
2021/04/12 07:27:23;;;;;;;26.25;24.17;;;4.50;87.50;;;;;;5134407;27;20701;-77
2021/04/12 07:30:24;;;;;;;26.20;24.48;;;4.60;87.80;;;;;;5135249;27;20304;-77
2021/04/12 07:33:23;;;;;;;28.70;26.50;;;4.70;86.60;;;;;;5135232;27;20288;-77
2021/04/12 07:36:23;;;;;;;28.73;26.63;;;4.70;86.40;;;;;;5134370;27;20190;-76
2021/04/12 07:39:26;;;;;;;26.58;24.73;;;4.80;86.00;;;;;;5134515;27;20198;-76
2021/04/12 07:42:29;;;;;;;26.20;24.30;;;4.80;86.00;;;;;;5134858;27;20201;-76
2021/04/12 07:45:29;;;;;;;28.45;26.45;;;4.70;86.90;;;;;;5134681;27;20214;-75
2021/04/12 07:48:34;;;;;;;27.83;25.52;;;4.80;87.80;;;;;;5134540;27;20197;-75
2021/04/12 07:51:39;;;;;;;30.10;27.90;;;5.00;86.40;;;;;;5127513;27;20218;-75
2021/04/12 07:54:44;;;;;;;26.48;24.67;;;5.30;85.30;;;;;;5134450;27;20192;-75
2021/04/12 07:58:01;;;;;;;28.17;25.77;;;5.30;85.00;;;;;;5134036;27;20198;-76
2021/04/12 08:01:03;;;;;;;29.30;27.13;;;5.60;83.80;;;;;;5128962;27;20213;-76
2021/04/12 08:04:06;;;;;;;33.38;31.02;;;5.70;83.60;;;;;;5134326;27;20285;-77
2021/04/12 08:07:12;;;;;;;30.35;28.15;;;5.80;82.30;;;;;;5133657;27;20189;-77
2021/04/12 08:10:43;;;;;;;31.35;28.95;;;5.70;82.00;;;;;;5134282;27;20256;-77
2021/04/12 08:13:49;;;;;;;31.65;29.25;;;5.90;81.90;;;;;;5133502;27;20201;-77
2021/04/12 08:16:54;;;;;;;31.83;29.52;;;5.80;82.10;;;;;;5091693;27;20234;-77
2021/04/12 08:19:46;;;;;;;31.65;29.25;;;5.90;80.80;;;;;;5134276;27;20194;-77
2021/04/12 08:22:53;;;;;;;32.10;29.80;;;5.80;81.00;;;;;;5088929;27;20233;-78
2021/04/12 08:25:58;;;;;;;33.20;30.52;;;5.90;81.70;;;;;;5133762;27;20312;-76
2021/04/12 08:29:02;;;;;;;35.47;32.75;;;6.10;80.40;;;;;;5104442;27;20200;-77
2021/04/12 08:32:04;;;;;;;33.10;30.60;;;6.10;80.20;;;;;;5133846;27;20300;-77
2021/04/12 08:35:03;;;;;;;32.60;30.10;;;6.30;79.90;;;;;;5133718;27;20223;-76
2021/04/12 08:38:11;;;;;;;32.22;29.90;;;6.30;79.80;;;;;;5098950;27;20327;-76
2021/04/12 08:40:58;;;;;;;34.47;31.88;;;6.10;78.10;;;;;;5133504;27;20254;-76
2021/04/12 08:43:55;;;;;;;33.25;30.75;;;5.80;79.20;;;;;;5133519;27;20201;-76
2021/04/12 08:46:51;;;;;;;36.35;33.83;;;5.90;79.50;;;;;;5132939;27;20194;-76
2021/04/12 08:49:58;;;;;;;34.00;31.58;;;5.80;79.30;;;;;;5133422;27;20193;-76
2021/04/12 08:52:59;;;;;;;33.75;30.98;;;5.80;78.10;;;;;;5133084;27;20197;-77
2021/04/12 08:55:49;;;;;;;30.75;28.45;;;5.60;78.30;;;;;;5133296;27;20547;-75
2021/04/12 08:58:51;;;;;;;31.40;29.30;;;5.50;79.20;;;;;;5133285;27;20197;-76
2021/04/12 09:01:53;;;;;;;32.97;30.58;;;5.50;79.40;;;;;;5129909;27;20357;-76
2021/04/12 09:04:58;;;;;;;32.55;30.38;;;6.00;79.70;;;;;;5133123;27;20244;-76
2021/04/12 09:08:05;;;;;;;32.05;29.70;;;6.20;76.10;;;;;;5132580;27;20650;-76
2021/04/12 09:11:04;;;;;;;32.30;30.20;;;5.90;78.10;;;;;;5133269;27;20308;-76
2021/04/12 09:14:14;;;;;;;29.83;27.70;;;5.80;78.20;;;;;;5132679;27;20292;-75
2021/04/12 09:17:06;;;;;;;31.20;29.20;;;5.90;78.70;;;;;;5132153;28;20232;-76
2021/04/12 09:20:02;;;;;;;32.55;29.85;;;6.00;78.00;;;;;;5133037;28;20300;-76
2021/04/12 09:23:13;;;;;;;30.40;28.10;;;6.20;77.50;;;;;;5133267;28;20249;-77
2021/04/12 09:26:10;;;;;;;31.88;29.77;;;6.40;75.80;;;;;;5132315;27;20235;-75
2021/04/12 09:29:24;;;;;;;29.65;27.65;;;6.70;76.20;;;;;;5133056;27;20334;-75
2021/04/12 09:32:35;;;;;;;31.42;29.10;;;6.80;74.00;;;;;;5049648;28;20684;-76
2021/04/12 09:35:18;;;;;;;31.50;29.60;;;6.30;73.80;;;;;;5049508;28;20196;-76
2021/04/12 09:38:24;;;;;;;29.83;27.75;;;6.40;75.30;;;;;;5128970;27;20194;-76
2021/04/12 09:41:21;;;;;;;28.50;26.80;;;6.80;74.50;;;;;;5132777;28;20240;-76
2021/04/12 09:44:18;;;;;;;28.88;26.98;;;7.00;71.80;;;;;;5132735;28;20199;-76
2021/04/12 09:47:22;;;;;;;29.38;27.42;;;7.00;70.60;;;;;;5132319;28;20200;-76
2021/04/12 09:50:25;;;;;;;31.00;29.20;;;7.00;70.70;;;;;;5132748;28;20593;-77
2021/04/12 09:53:13;;;;;;;30.38;28.48;;;6.70;69.30;;;;;;5132418;27;20351;-76
2021/04/12 09:56:12;;;;;;;31.25;29.15;;;6.50;71.60;;;;;;5132095;28;20191;-77
2021/04/12 09:59:06;;;;;;;28.92;27.23;;;6.70;71.20;;;;;;5105184;27;20570;-76
2021/04/12 10:02:06;;;;;;;30.58;28.70;;;6.70;69.40;;;;;;5103052;27;20214;-76
2021/04/12 10:04:57;;;;;;;29.50;26.95;;;6.30;69.80;;;;;;5130297;27;20575;-76
2021/04/12 10:07:52;;;;;;;27.35;25.75;;;6.50;69.70;;;;;;5094196;27;20198;-76
2021/04/12 10:10:23;;;;;;;26.17;24.58;;;6.90;68.00;;;;;;5136361;27;20232;-76
2021/04/12 10:13:27;;;;;;;27.88;26.05;;;7.20;67.90;;;;;;5135941;27;20281;-76
2021/04/12 10:16:04;;;;;;;25.08;23.60;;;7.40;68.00;;;;;;5135936;27;20194;-77
2021/04/12 10:18:42;;;;;;;29.63;28.02;;;7.70;66.40;;;;;;5136296;27;20543;-77
2021/04/12 10:21:20;;;;;;;26.85;25.15;;;7.70;65.70;;;;;;5136737;27;20819;-76
2021/04/12 10:23:51;;;;;;;25.90;24.20;;;7.40;65.90;;;;;;5136488;27;20234;-76
2021/04/12 10:26:26;;;;;;;26.92;25.20;;;7.40;65.30;;;;;;5135777;27;20253;-76
2021/04/12 10:29:02;;;;;;;26.80;24.83;;;7.50;63.30;;;;;;5136602;27;20214;-77
2021/04/12 10:31:34;;;;;;;29.58;26.55;;;7.80;63.50;;;;;;5136468;27;20210;-77
2021/04/12 10:34:19;;;;;;;28.10;26.05;;;8.10;63.30;;;;;;5136253;27;20206;-76
2021/04/12 10:36:53;;;;;;;26.23;24.60;;;8.40;61.30;;;;;;5134929;27;20292;-77
2021/04/12 10:39:31;;;;;;;25.80;24.20;;;8.50;59.50;;;;;;5136045;27;20204;-76
2021/04/12 10:42:06;;;;;;;25.10;23.70;;;8.50;57.10;;;;;;5135834;27;20570;-76
2021/04/12 10:44:38;;;;;;;25.48;23.98;;;8.30;56.90;;;;;;5135874;27;20220;-76
2021/04/12 10:47:14;;;;;;;27.85;26.23;;;8.10;58.20;;;;;;5135006;27;20289;-76
2021/04/12 10:49:59;;;;;;;28.42;26.83;;;8.40;56.80;;;;;;5135635;27;20214;-76
2021/04/12 10:52:33;;;;;;;26.08;24.17;;;8.20;58.00;;;;;;5135629;27;20561;-76
2021/04/12 10:55:14;;;;;;;25.45;24.05;;;8.10;58.40;;;;;;5135540;27;20198;-76
2021/04/12 10:57:48;;;;;;;27.33;25.50;;;8.00;56.60;;;;;;5135096;27;20204;-76
2021/04/12 11:00:43;;;;;;;25.83;24.42;;;8.00;56.80;;;;;;5135472;27;20243;-76
2021/04/12 11:03:29;;;;;;;29.98;26.77;;;7.70;57.10;;;;;;5135530;27;20269;-77
2021/04/12 11:06:09;;;;;;;26.80;25.20;;;7.50;58.40;;;;;;5134648;27;20302;-77
2021/04/12 11:08:45;;;;;;;25.90;24.23;;;7.70;59.00;;;;;;5135613;27;20659;-76
2021/04/12 11:11:17;;;;;;;26.33;24.83;;;7.90;59.50;;;;;;5135482;27;20273;-76
2021/04/12 11:13:50;;;;;;;26.00;24.50;;;8.10;59.30;;;;;;5134093;27;20293;-76
2021/04/12 11:16:20;;;;;;;28.38;26.58;;;8.20;59.70;;;;;;5134713;27;20190;-77
2021/04/12 11:19:09;;;;;;;27.63;25.83;;;8.00;61.10;;;;;;5135238;27;20281;-76
2021/04/12 11:21:41;;;;;;;26.92;25.23;;;8.40;60.20;;;;;;5134756;27;20218;-77
2021/04/12 11:24:19;;;;;;;26.40;24.83;;;8.60;59.90;;;;;;5135112;27;20207;-76
2021/04/12 11:27:31;;;;;;;25.35;23.95;;;8.70;57.50;;;;;;5134637;27;20730;-76
2021/04/12 11:30:06;;;;;;;27.00;25.40;;;8.60;57.70;;;;;;5096943;27;20218;-77
2021/04/12 11:32:47;;;;;;;25.27;23.77;;;8.70;56.10;;;;;;5134874;27;20644;-77
2021/04/12 11:35:19;;;;;;;26.30;24.73;;;8.80;55.20;;;;;;5134560;27;20198;-77
2021/04/12 11:37:58;;;;;;;24.08;22.85;;;8.60;54.90;;;;;;5134534;27;20281;-77
2021/04/12 11:40:30;;;;;;;25.77;24.27;;;8.50;55.60;;;;;;5134916;27;20220;-77
2021/04/12 11:43:00;;;;;;;25.10;23.60;;;8.50;56.60;;;;;;5134570;27;20198;-77
2021/04/12 11:45:34;;;;;;;25.60;24.20;;;8.80;56.70;;;;;;5134140;27;20578;-80
2021/04/12 11:48:08;;;;;;;26.00;24.50;;;8.80;55.40;;;;;;5134597;27;20198;-77
2021/04/12 11:50:39;;;;;;;26.00;24.08;;;8.70;55.20;;;;;;5134471;27;20217;-77
2021/04/12 11:53:14;;;;;;;25.83;24.23;;;8.90;54.90;;;;;;5134453;27;20282;-77
2021/04/12 11:55:50;;;;;;;27.00;25.20;;;9.20;54.20;;;;;;5133922;27;20216;-79
2021/04/12 11:58:21;;;;;;;26.45;24.75;;;9.30;53.60;;;;;;5134610;27;20284;-78
2021/04/12 12:01:04;;;;;;;25.55;24.02;;;9.30;53.00;;;;;;5134220;27;20218;-77
2021/04/12 12:03:46;;;;;;;30.05;28.35;;;9.40;51.60;;;;;;5134424;27;20226;-77
2021/04/12 12:06:28;;;;;;;25.85;24.13;;;9.90;51.70;;;;;;5133430;27;20217;-78
2021/04/12 12:09:01;;;;;;;24.52;23.05;;;10.40;52.00;;;;;;5134484;27;20198;-78
2021/04/12 12:11:34;;;;;;;26.27;24.40;;;10.50;50.30;;;;;;5134137;27;20300;-78
2021/04/12 12:14:10;;;;;;;24.25;22.85;;;10.70;50.30;;;;;;5134333;27;20460;-78
2021/04/12 12:16:42;;;;;;;26.20;24.60;;;10.70;50.50;;;;;;5133546;27;20198;-75
2021/04/12 12:19:22;;;;;;;26.52;25.02;;;10.70;49.70;;;;;;5133998;27;20198;-76
2021/04/12 12:21:52;;;;;;;24.95;23.55;;;10.50;47.90;;;;;;5134134;27;20280;-77
2021/04/12 12:24:26;;;;;;;24.67;23.27;;;10.10;48.80;;;;;;5133885;27;20241;-77
2021/04/12 12:27:01;;;;;;;25.02;23.52;;;9.70;50.20;;;;;;5133420;27;20204;-76
2021/04/12 12:29:30;;;;;;;24.42;23.02;;;9.60;50.70;;;;;;5133726;27;20193;-76
2021/04/12 12:32:36;;;;;;;26.08;24.58;;;9.30;51.90;;;;;;5133545;27;20609;-77
2021/04/12 12:35:36;;;;;;;25.85;24.15;;;9.30;52.70;;;;;;5133314;27;20271;-77
2021/04/12 12:38:27;;;;;;;25.25;23.85;;;9.10;52.30;;;;;;5129134;27;20288;-76
2021/04/12 12:40:56;;;;;;;26.98;25.10;;;9.20;52.50;;;;;;5133610;27;20632;-76
2021/04/12 12:43:27;;;;;;;25.15;23.42;;;9.40;51.60;;;;;;5133411;27;20221;-77
2021/04/12 12:45:56;;;;;;;24.70;23.40;;;9.60;50.00;;;;;;5132982;27;20327;-77
2021/04/12 12:48:28;;;;;;;25.25;23.75;;;9.70;48.40;;;;;;5133916;27;20198;-78
2021/04/12 12:51:00;;;;;;;24.38;23.08;;;9.60;48.30;;;;;;5133777;27;20309;-78
2021/04/12 12:53:31;;;;;;;24.58;23.27;;;9.80;48.50;;;;;;5133620;27;20197;-79
2021/04/12 12:56:00;;;;;;;24.63;23.33;;;9.90;46.40;;;;;;5132890;27;20604;-76
2021/04/12 12:58:29;;;;;;;25.00;23.63;;;9.40;43.70;;;;;;5133348;27;20277;-76
2021/04/12 13:00:58;;;;;;;25.40;23.88;;;9.30;45.00;;;;;;5133298;27;20735;-76
2021/04/12 13:03:31;;;;;;;26.38;25.00;;;9.50;45.60;;;;;;5133428;27;20289;-76
2021/04/12 13:06:11;;;;;;;24.95;23.52;;;9.50;45.80;;;;;;5132628;27;20304;-76
2021/04/12 13:08:38;;;;;;;24.00;22.60;;;9.50;46.50;;;;;;5134357;27;20228;-78
2021/04/12 13:11:08;;;;;;;23.48;22.27;;;9.60;46.50;;;;;;5133206;27;20221;-77
2021/04/12 13:13:36;;;;;;;26.50;24.98;;;9.90;46.30;;;;;;5132659;27;20289;-77
2021/04/12 13:16:12;;;;;;;24.63;23.30;;;10.00;46.10;;;;;;5132704;28;20200;-77
2021/04/12 13:18:41;;;;;;;23.95;22.65;;;10.40;45.90;;;;;;5132957;28;20631;-76
2021/04/12 13:21:12;;;;;;;24.90;23.50;;;10.70;45.80;;;;;;5132937;28;20213;-77
2021/04/12 13:23:55;;;;;;;26.27;24.58;;;10.80;45.60;;;;;;5133255;28;20193;-77
2021/04/12 13:26:27;;;;;;;25.40;24.02;;;10.20;46.00;;;;;;5132324;28;20214;-77
2021/04/12 13:28:55;;;;;;;24.60;23.40;;;10.10;45.90;;;;;;5133019;28;20190;-77
2021/04/12 13:31:34;;;;;;;24.90;23.45;;;9.90;45.60;;;;;;5133099;28;20213;-77
2021/04/12 13:34:09;;;;;;;24.20;22.90;;;10.10;44.70;;;;;;5133138;28;20205;-76
2021/04/12 13:36:39;;;;;;;24.98;23.35;;;10.20;44.20;;;;;;5133305;27;20190;-77
2021/04/12 13:39:10;;;;;;;24.80;23.50;;;10.00;45.30;;;;;;5137068;27;20196;-76
2021/04/12 13:41:42;;;;;;;24.10;22.80;;;9.80;45.60;;;;;;5137287;27;20624;-76
2021/04/12 13:44:11;;;;;;;24.15;22.75;;;9.80;46.20;;;;;;5136675;27;20194;-77
2021/04/12 13:46:48;;;;;;;26.08;24.52;;;9.80;46.90;;;;;;5136604;27;20309;-76
2021/04/12 13:49:19;;;;;;;23.98;22.75;;;9.50;47.20;;;;;;5140163;27;20257;-77
2021/04/12 13:51:50;;;;;;;27.63;26.23;;;9.60;46.70;;;;;;5141997;27;20217;-77
2021/04/12 13:54:23;;;;;;;26.50;24.92;;;9.80;50.30;;;;;;5140249;27;20194;-77
2021/04/12 13:56:52;;;;;;;24.27;22.95;;;10.00;47.90;;;;;;5139243;27;20618;-77
2021/04/12 13:59:24;;;;;;;26.15;24.75;;;10.20;46.10;;;;;;5140807;27;20285;-77
2021/04/12 14:01:54;;;;;;;25.60;24.20;;;10.20;46.50;;;;;;5140734;27;20200;-78
2021/04/12 14:04:25;;;;;;;24.70;23.20;;;10.00;47.30;;;;;;5139552;27;20202;-76
2021/04/12 14:06:58;;;;;;;24.10;22.83;;;9.90;46.10;;;;;;5138977;27;20281;-77
2021/04/12 14:09:32;;;;;;;26.23;24.75;;;9.90;48.10;;;;;;5140195;27;20233;-77
2021/04/12 14:12:02;;;;;;;24.60;23.10;;;9.60;47.80;;;;;;5139778;27;20277;-78
2021/04/12 14:14:31;;;;;;;24.50;23.20;;;9.20;48.60;;;;;;5139511;27;20559;-77
2021/04/12 14:17:04;;;;;;;26.42;25.02;;;9.20;50.10;;;;;;5138575;27;20281;-77
2021/04/12 14:19:39;;;;;;;26.02;24.42;;;9.20;50.30;;;;;;5137418;27;20205;-77